createdAt,value
2023-04-06T00:05:50.350Z,71.17
2023-04-06T00:11:14.235Z,71.06
2023-04-06T00:16:38.397Z,71.30
2023-04-06T00:22:03.617Z,71.20
2023-04-06T00:27:27.751Z,71.21
2023-04-06T00:32:52.598Z,70.95
2023-04-06T00:38:16.954Z,71.01
2023-04-06T00:43:40.869Z,71.29
2023-04-06T00:49:05.415Z,71.12
2023-04-06T00:54:30.797Z,70.89
2023-04-06T00:59:56.470Z,71.09
2023-04-06T01:05:21.405Z,71.19
2023-04-06T01:10:51.843Z,71.38
2023-04-06T01:16:23.570Z,71.57
2023-04-06T01:22:06.499Z,71.67
2023-04-06T01:27:31.414Z,71.46
2023-04-06T01:33:12.775Z,71.43
2023-04-06T01:38:55.814Z,71.43
2023-04-06T01:44:26.932Z,71.75
2023-04-06T01:50:00.279Z,72.23
2023-04-06T01:55:25.116Z,72.08
2023-04-06T02:01:05.160Z,71.96
2023-04-06T02:06:36.906Z,72.15
2023-04-06T02:12:03.133Z,72.14
2023-04-06T02:17:28.786Z,72.08
2023-04-06T02:22:53.112Z,71.95
2023-04-06T02:28:17.793Z,71.54
2023-04-06T02:33:42.209Z,71.80
2023-04-06T02:39:08.332Z,72.00
2023-04-06T02:44:32.953Z,72.22
2023-04-06T02:49:57.145Z,72.02
2023-04-06T02:55:22.244Z,72.06
2023-04-06T03:00:46.756Z,71.92
2023-04-06T03:06:10.842Z,71.91
2023-04-06T03:11:35.466Z,72.04
2023-04-06T03:16:59.990Z,72.44
2023-04-06T03:22:24.072Z,73.02
2023-04-06T03:27:48.070Z,72.84
2023-04-06T03:33:13.490Z,72.74
2023-04-06T03:38:45.680Z,72.74
2023-04-06T03:44:11.535Z,72.48
2023-04-06T03:49:35.991Z,72.31
2023-04-06T03:55:03.909Z,71.99
2023-04-06T04:00:28.433Z,71.74
2023-04-06T04:05:52.922Z,72.07
2023-04-06T04:11:17.231Z,72.27
2023-04-06T04:16:44.988Z,72.92
2023-04-06T04:22:09.520Z,72.88
2023-04-06T04:27:36.391Z,73.12
2023-04-06T04:33:01.025Z,72.81
2023-04-06T04:38:26.023Z,72.59
2023-04-06T04:43:52.215Z,72.41
2023-04-06T04:49:20.308Z,72.63
2023-04-06T04:54:48.469Z,72.59
2023-04-06T05:00:18.940Z,72.59
2023-04-06T05:05:43.644Z,72.46
2023-04-06T05:11:07.995Z,72.50
2023-04-06T05:17:34.303Z,73.17
2023-04-06T05:23:07.124Z,73.23
2023-04-06T05:28:32.467Z,73.13
2023-04-06T05:33:58.651Z,73.21
2023-04-06T05:39:29.573Z,72.85
2023-04-06T05:44:54.938Z,73.04
2023-04-06T05:50:20.109Z,73.22
2023-04-06T05:55:46.767Z,73.44
2023-04-06T06:01:17.106Z,73.67
2023-04-06T06:06:43.911Z,74.27
2023-04-06T06:12:23.531Z,73.83
2023-04-06T06:17:47.754Z,72.91
2023-04-06T06:23:12.166Z,73.32
2023-04-06T06:28:37.571Z,74.25
2023-04-06T06:34:03.211Z,74.84
2023-04-06T06:39:30.366Z,75.09
2023-04-06T06:44:55.698Z,73.73
2023-04-06T06:50:22.263Z,74.60
2023-04-06T06:55:47.009Z,74.98
2023-04-06T07:01:11.972Z,75.15
2023-04-06T07:06:37.805Z,74.13
2023-04-06T07:12:03.344Z,74.31
2023-04-06T07:17:28.087Z,74.56
2023-04-06T07:22:52.308Z,75.14
2023-04-06T07:28:16.899Z,75.84
2023-04-06T07:33:41.729Z,74.98
2023-04-06T07:39:06.531Z,74.09
2023-04-06T07:44:32.107Z,72.20
2023-04-06T07:49:59.831Z,70.71
2023-04-06T07:55:24.051Z,69.77
2023-04-06T08:00:48.402Z,68.56
2023-04-06T08:06:12.655Z,67.69
2023-04-06T08:11:37.195Z,67.44
2023-04-06T08:17:01.792Z,64.33
2023-04-06T08:22:25.692Z,65.35
2023-04-06T08:27:49.947Z,64.71
2023-04-06T08:33:14.091Z,63.74
2023-04-06T08:38:38.176Z,62.18
2023-04-06T08:44:04.740Z,60.49
2023-04-06T08:49:29.630Z,56.27
2023-04-06T08:54:54.065Z,58.02
2023-04-06T09:00:19.243Z,57.54
2023-04-06T09:05:43.497Z,56.82
2023-04-06T09:11:08.214Z,56.29
2023-04-06T09:16:41.344Z,56.46
2023-04-06T09:22:08.692Z,55.26
2023-04-06T09:27:40.042Z,52.22
2023-04-06T09:33:04.298Z,49.50
2023-04-06T09:38:28.428Z,48.92
2023-04-06T09:43:54.548Z,49.15
2023-04-06T09:49:20.857Z,49.00
2023-04-06T09:54:47.946Z,48.50
2023-04-06T10:00:19.243Z,47.21
2023-04-06T10:05:54.948Z,47.39
2023-04-06T10:11:19.683Z,47.60
2023-04-06T10:16:44.770Z,48.56
2023-04-06T10:22:14.513Z,47.67
2023-04-06T10:27:38.671Z,47.57
2023-04-06T10:33:22.813Z,46.11
2023-04-06T10:38:47.080Z,46.88
2023-04-06T10:44:23.094Z,47.12
2023-04-06T10:49:48.218Z,47.23
2023-04-06T10:55:16.356Z,45.76
2023-04-06T11:00:51.114Z,45.53
2023-04-06T11:06:28.860Z,44.18
2023-04-06T11:11:53.964Z,44.90
2023-04-06T11:17:18.201Z,44.00
2023-04-06T11:23:09.221Z,41.69
2023-04-06T11:28:33.676Z,40.28
2023-04-06T11:33:58.940Z,43.50
2023-04-06T11:39:25.264Z,41.97
2023-04-06T11:44:52.788Z,40.79
2023-04-06T11:50:17.558Z,42.44
2023-04-06T11:55:42.427Z,41.19
2023-04-06T12:01:07.755Z,39.59
2023-04-06T12:07:34.988Z,40.20
2023-04-06T12:12:59.890Z,40.73
2023-04-06T12:18:24.416Z,39.76
2023-04-06T12:23:49.181Z,40.01
2023-04-06T12:29:14.785Z,41.04
2023-04-06T12:34:40.409Z,38.59
2023-04-06T12:40:05.592Z,36.96
2023-04-06T12:45:30.080Z,38.09
2023-04-06T12:51:02.632Z,38.79
2023-04-06T12:56:27.340Z,38.63
2023-04-06T13:01:52.497Z,39.01
2023-04-06T13:07:18.596Z,39.24
2023-04-06T13:12:43.147Z,35.86
2023-04-06T13:18:08.088Z,37.30
2023-04-06T13:23:32.449Z,38.11
2023-04-06T13:28:58.101Z,38.49
2023-04-06T13:34:22.771Z,38.32
2023-04-06T13:39:48.593Z,39.65
2023-04-06T13:45:13.409Z,36.46
2023-04-06T13:50:38.306Z,36.40
2023-04-06T13:56:02.723Z,38.83
2023-04-06T14:01:27.970Z,38.98
2023-04-06T14:06:52.219Z,39.87
2023-04-06T14:12:16.879Z,38.57
2023-04-06T14:17:41.596Z,38.79
2023-04-06T14:23:05.927Z,39.44
2023-04-06T14:28:30.195Z,38.74
2023-04-06T14:33:54.544Z,38.75
2023-04-06T14:39:19.154Z,37.71
2023-04-06T14:44:47.545Z,38.90
2023-04-06T14:50:12.536Z,40.20
2023-04-06T14:55:42.757Z,39.86
2023-04-06T15:01:07.906Z,38.57
2023-04-06T15:06:32.268Z,38.57
2023-04-06T15:11:57.173Z,38.31
2023-04-06T15:17:22.264Z,40.78
2023-04-06T15:22:46.882Z,38.80
2023-04-06T15:28:11.331Z,39.22
2023-04-06T15:33:35.242Z,39.92
2023-04-06T15:39:00.213Z,38.98
2023-04-06T15:44:25.558Z,38.26
2023-04-06T15:49:51.070Z,39.90
2023-04-06T15:55:16.173Z,41.03
2023-04-06T16:00:40.484Z,40.10
2023-04-06T16:06:08.897Z,38.35
2023-04-06T16:11:33.545Z,41.42
2023-04-06T16:16:59.611Z,40.98
2023-04-06T16:22:25.469Z,39.19
2023-04-06T16:27:52.382Z,37.86
2023-04-06T16:33:20.871Z,39.20
2023-04-06T16:38:45.082Z,39.99
2023-04-06T16:44:11.369Z,39.76
2023-04-06T16:49:35.881Z,40.60
2023-04-06T16:55:01.157Z,42.21
2023-04-06T17:00:25.978Z,42.19
2023-04-06T17:05:50.623Z,42.56
2023-04-06T17:11:20.012Z,42.07
2023-04-06T17:16:48.303Z,43.09
2023-04-06T17:22:27.129Z,43.99
2023-04-06T17:28:03.559Z,44.48
2023-04-06T17:33:30.517Z,44.48
2023-04-06T17:38:55.745Z,44.47
2023-04-06T17:44:20.068Z,43.70
2023-04-06T17:49:44.455Z,45.04
2023-04-06T17:55:09.322Z,46.10
2023-04-06T18:00:34.193Z,46.61
2023-04-06T18:05:58.306Z,47.31
2023-04-06T18:11:23.569Z,47.89
2023-04-06T18:16:47.944Z,48.52
2023-04-06T18:22:18.239Z,48.83
2023-04-06T18:27:55.335Z,49.52
2023-04-06T18:33:36.488Z,49.84
2023-04-06T18:39:13.575Z,50.15
2023-04-06T18:44:38.154Z,50.41
2023-04-06T18:50:02.527Z,50.93
2023-04-06T18:55:27.137Z,51.07
2023-04-06T19:00:51.449Z,51.33
2023-04-06T19:06:16.283Z,51.88
2023-04-06T19:11:41.028Z,52.37
2023-04-06T19:17:07.964Z,52.51
2023-04-06T19:22:35.889Z,52.68
2023-04-06T19:28:00.740Z,53.08
2023-04-06T19:33:25.551Z,53.50
2023-04-06T19:38:50.749Z,53.96
2023-04-06T19:44:16.666Z,54.15
2023-04-06T19:49:41.099Z,54.42
2023-04-06T19:55:05.603Z,54.59
2023-04-06T20:00:31.408Z,55.00
2023-04-06T20:05:55.626Z,55.20
2023-04-06T20:11:21.664Z,55.33
2023-04-06T20:16:46.387Z,55.35
2023-04-06T20:22:10.799Z,55.71
2023-04-06T20:27:35.023Z,56.14
2023-04-06T20:32:59.270Z,56.57
2023-04-06T20:38:32.332Z,56.77
2023-04-06T20:43:57.811Z,57.04
2023-04-06T20:49:24.874Z,57.76
2023-04-06T20:54:50.910Z,58.71
2023-04-06T21:00:16.168Z,58.89
2023-04-06T21:05:40.232Z,59.35
2023-04-06T21:11:05.414Z,59.39
2023-04-06T21:16:30.221Z,59.50
2023-04-06T21:21:55.422Z,59.48
2023-04-06T21:27:19.463Z,59.90
2023-04-06T21:32:43.653Z,60.60
2023-04-06T21:38:09.483Z,60.72
2023-04-06T21:43:34.281Z,61.12
2023-04-06T21:49:00.253Z,60.90
2023-04-06T21:54:24.691Z,60.93
2023-04-06T21:59:48.593Z,61.04
2023-04-06T22:05:13.567Z,61.38
2023-04-06T22:10:39.112Z,62.18
2023-04-06T22:16:04.328Z,61.94
2023-04-06T22:21:29.716Z,62.79
2023-04-06T22:26:54.109Z,62.76
2023-04-06T22:32:18.603Z,63.29
2023-04-06T22:37:43.951Z,63.43
2023-04-06T22:43:08.221Z,63.44
2023-04-06T22:48:32.256Z,63.40
2023-04-06T22:53:56.941Z,63.56
2023-04-06T22:59:21.400Z,63.65
2023-04-06T23:04:48.069Z,63.69
2023-04-06T23:10:12.204Z,63.57
2023-04-06T23:15:36.725Z,64.03
2023-04-06T23:21:01.286Z,64.04
2023-04-06T23:26:27.431Z,64.26
2023-04-06T23:31:52.071Z,64.33
2023-04-06T23:37:15.993Z,64.55
2023-04-06T23:42:39.775Z,64.64
2023-04-06T23:48:04.241Z,64.89
2023-04-06T23:53:28.640Z,65.12
2023-04-06T23:58:53.829Z,64.94
